createdAt,value
2023-02-24T00:02:02.076Z,4.80
2023-02-24T00:04:39.536Z,4.80
2023-02-24T00:07:08.357Z,4.80
2023-02-24T00:09:35.872Z,4.80
2023-02-24T00:12:06.290Z,4.80
2023-02-24T00:14:36.001Z,4.80
2023-02-24T00:17:03.782Z,4.80
2023-02-24T00:19:32.832Z,4.80
2023-02-24T00:22:01.648Z,4.80
2023-02-24T00:24:29.183Z,4.70
2023-02-24T00:26:59.451Z,4.80
2023-02-24T00:29:28.918Z,4.80
2023-02-24T00:32:00.712Z,4.90
2023-02-24T00:34:29.356Z,4.80
2023-02-24T00:36:58.193Z,4.90
2023-02-24T00:39:34.750Z,4.90
2023-02-24T00:42:07.684Z,4.80
2023-02-24T00:44:40.999Z,4.90
2023-02-24T00:47:10.484Z,4.80
2023-02-24T00:49:48.401Z,4.80
2023-02-24T00:52:18.435Z,4.70
2023-02-24T00:54:47.452Z,4.80
2023-02-24T00:57:17.780Z,4.80
2023-02-24T00:59:48.013Z,4.80
2023-02-24T01:02:15.861Z,4.80
2023-02-24T01:04:45.147Z,4.80
2023-02-24T01:07:14.068Z,4.80
2023-02-24T01:09:41.932Z,4.80
2023-02-24T01:12:29.838Z,4.80
2023-02-24T01:14:57.446Z,4.70
2023-02-24T01:17:25.590Z,4.70
2023-02-24T01:19:53.073Z,4.60
2023-02-24T01:22:22.734Z,4.60
2023-02-24T01:24:49.859Z,4.60
2023-02-24T01:27:20.981Z,4.60
2023-02-24T01:29:48.754Z,4.60
2023-02-24T01:32:19.748Z,4.50
2023-02-24T01:34:48.240Z,4.50
2023-02-24T01:37:16.590Z,4.50
2023-02-24T01:39:47.485Z,4.40
2023-02-24T01:42:19.320Z,4.40
2023-02-24T01:44:46.980Z,4.30
2023-02-24T01:47:16.389Z,4.20
2023-02-24T01:49:47.361Z,4.20
2023-02-24T01:52:19.453Z,4.10
2023-02-24T01:54:52.439Z,4.10
2023-02-24T01:57:24.018Z,4.00
2023-02-24T01:59:54.345Z,3.90
2023-02-24T02:02:23.413Z,3.80
2023-02-24T02:04:59.694Z,3.90
2023-02-24T02:07:29.755Z,3.80
2023-02-24T02:10:04.173Z,3.80
2023-02-24T02:12:37.291Z,3.80
2023-02-24T02:15:07.760Z,3.80
2023-02-24T02:18:08.398Z,3.80
2023-02-24T02:21:09.600Z,3.70
2023-02-24T02:23:42.657Z,3.70
2023-02-24T02:26:40.627Z,3.70
2023-02-24T02:29:37.969Z,3.60
2023-02-24T02:32:31.988Z,3.60
2023-02-24T02:35:24.417Z,3.60
2023-02-24T02:37:59.104Z,3.50
2023-02-24T02:40:37.667Z,3.50
2023-02-24T02:43:05.218Z,3.40
2023-02-24T02:45:56.183Z,3.40
2023-02-24T02:48:41.221Z,3.40
2023-02-24T02:51:11.351Z,3.30
2023-02-24T02:53:50.904Z,3.40
2023-02-24T02:56:36.971Z,3.30
2023-02-24T02:59:06.996Z,3.40
2023-02-24T03:01:37.714Z,3.30
2023-02-24T03:04:08.508Z,3.30
2023-02-24T03:06:47.802Z,3.30
2023-02-24T03:09:23.178Z,3.40
2023-02-24T03:11:55.867Z,3.30
2023-02-24T03:14:28.368Z,3.30
2023-02-24T03:16:58.829Z,3.30
2023-02-24T03:19:37.562Z,3.30
2023-02-24T03:22:14.682Z,3.20
2023-02-24T03:24:42.704Z,3.20
2023-02-24T03:27:27.228Z,3.30
2023-02-24T03:30:07.503Z,3.20
2023-02-24T03:32:57.574Z,3.20
2023-02-24T03:35:36.288Z,3.10
2023-02-24T03:38:06.635Z,3.10
2023-02-24T03:40:35.999Z,3.10
2023-02-24T03:43:17.809Z,3.00
2023-02-24T03:45:46.721Z,3.10
2023-02-24T03:48:14.462Z,3.00
2023-02-24T03:50:45.610Z,3.10
2023-02-24T03:53:59.959Z,3.10
2023-02-24T03:56:58.715Z,3.10
2023-02-24T03:59:46.083Z,3.10
2023-02-24T04:02:28.630Z,3.10
2023-02-24T04:05:20.730Z,3.10
2023-02-24T04:08:09.251Z,3.20
2023-02-24T04:11:05.426Z,3.30
2023-02-24T04:13:43.510Z,3.20
2023-02-24T04:16:28.229Z,3.20
2023-02-24T04:19:03.945Z,3.20
2023-02-24T04:21:37.285Z,3.10
2023-02-24T04:24:11.484Z,3.20
2023-02-24T04:26:40.664Z,3.20
2023-02-24T04:29:10.477Z,3.20
2023-02-24T04:31:39.147Z,3.20
2023-02-24T04:34:09.558Z,3.30
2023-02-24T04:36:39.473Z,3.30
2023-02-24T04:39:07.710Z,3.30
2023-02-24T04:41:35.864Z,3.40
2023-02-24T04:44:03.068Z,3.30
2023-02-24T04:46:32.568Z,3.30
2023-02-24T04:49:02.151Z,3.40
2023-02-24T04:51:31.850Z,3.50
2023-02-24T04:53:58.814Z,3.50
2023-02-24T04:56:25.868Z,3.50
2023-02-24T04:58:52.842Z,3.50
2023-02-24T05:01:20.012Z,3.40
2023-02-24T05:03:47.797Z,3.40
2023-02-24T05:06:16.964Z,3.40
2023-02-24T05:08:44.632Z,3.40
2023-02-24T05:11:16.253Z,3.40
2023-02-24T05:13:47.150Z,3.40
2023-02-24T05:16:17.285Z,3.30
2023-02-24T05:18:44.818Z,3.40
2023-02-24T05:21:32.472Z,3.30
2023-02-24T05:23:59.833Z,3.30
2023-02-24T05:26:27.323Z,3.20
2023-02-24T05:28:56.545Z,3.20
2023-02-24T05:31:26.649Z,3.10
2023-02-24T05:33:59.299Z,3.10
2023-02-24T05:36:29.265Z,3.10
2023-02-24T05:39:06.280Z,3.00
2023-02-24T05:41:38.798Z,3.00
2023-02-24T05:44:15.769Z,3.00
2023-02-24T05:46:47.147Z,3.00
2023-02-24T05:49:20.673Z,2.90
2023-02-24T05:51:54.913Z,3.00
2023-02-24T05:54:37.640Z,2.90
2023-02-24T05:57:09.273Z,2.90
2023-02-24T05:59:36.520Z,2.90
2023-02-24T06:02:09.252Z,2.80
2023-02-24T06:04:40.707Z,2.80
2023-02-24T06:07:19.243Z,2.80
2023-02-24T06:09:50.268Z,2.80
2023-02-24T06:12:18.717Z,2.80
2023-02-24T06:14:45.774Z,2.80
2023-02-24T06:17:15.276Z,2.90
2023-02-24T06:19:43.510Z,2.90
2023-02-24T06:22:13.874Z,2.90
2023-02-24T06:24:44.415Z,2.80
2023-02-24T06:27:17.887Z,2.90
2023-02-24T06:29:46.396Z,2.90
2023-02-24T06:32:13.650Z,2.80
2023-02-24T06:34:41.220Z,2.90
2023-02-24T06:37:13.711Z,2.90
2023-02-24T06:39:41.422Z,2.90
2023-02-24T06:42:10.564Z,2.90
2023-02-24T06:44:39.456Z,2.90
2023-02-24T06:47:08.440Z,3.00
2023-02-24T06:49:37.614Z,3.00
2023-02-24T06:52:05.919Z,3.00
2023-02-24T06:54:35.992Z,3.00
2023-02-24T06:57:03.709Z,3.10
2023-02-24T06:59:32.262Z,3.10
2023-02-24T07:02:01.997Z,3.20
2023-02-24T07:04:29.610Z,3.10
2023-02-24T07:07:03.652Z,3.20
2023-02-24T07:09:32.152Z,3.10
2023-02-24T07:12:02.674Z,3.10
2023-02-24T07:14:33.198Z,3.20
2023-02-24T07:17:00.945Z,3.20
2023-02-24T07:19:32.495Z,3.20
2023-02-24T07:22:02.517Z,3.20
2023-02-24T07:24:46.291Z,3.30
2023-02-24T07:27:22.396Z,3.30
2023-02-24T07:29:52.945Z,3.40
2023-02-24T07:32:25.463Z,3.40
2023-02-24T07:34:53.068Z,3.40
2023-02-24T07:37:21.121Z,3.40
2023-02-24T07:39:48.142Z,3.50
2023-02-24T07:42:15.162Z,3.50
2023-02-24T07:44:46.801Z,3.50
2023-02-24T07:47:16.251Z,3.50
2023-02-24T07:49:43.847Z,3.60
2023-02-24T07:52:11.599Z,3.60
2023-02-24T07:54:39.496Z,3.70
2023-02-24T07:57:14.186Z,3.70
2023-02-24T07:59:47.036Z,3.80
2023-02-24T08:02:14.719Z,3.80
2023-02-24T08:04:48.346Z,3.90
2023-02-24T08:07:15.800Z,3.90
2023-02-24T08:09:46.106Z,4.00
2023-02-24T08:12:22.106Z,4.10
2023-02-24T08:14:52.758Z,4.10
2023-02-24T08:17:22.571Z,4.20
2023-02-24T08:20:01.169Z,4.20
2023-02-24T08:22:36.042Z,4.30
2023-02-24T08:25:06.707Z,4.40
2023-02-24T08:27:39.086Z,4.40
2023-02-24T08:30:07.868Z,4.40
2023-02-24T08:32:47.029Z,4.40
2023-02-24T08:35:16.685Z,4.50
2023-02-24T08:37:50.322Z,4.50
2023-02-24T08:40:32.360Z,4.50
2023-02-24T08:43:19.492Z,4.60
2023-02-24T08:45:53.582Z,4.60
2023-02-24T08:48:32.221Z,4.60
2023-02-24T08:51:04.573Z,4.60
2023-02-24T08:53:31.618Z,4.70
2023-02-24T08:56:01.089Z,4.70
2023-02-24T08:58:28.230Z,4.80
2023-02-24T09:00:59.594Z,4.90
2023-02-24T09:03:29.139Z,4.90
2023-02-24T09:06:00.676Z,4.90
2023-02-24T09:08:32.659Z,5.00
2023-02-24T09:11:02.162Z,5.10
2023-02-24T09:13:33.113Z,5.20
2023-02-24T09:16:02.366Z,5.20
2023-02-24T09:18:30.414Z,5.20
2023-02-24T09:21:15.966Z,5.20
2023-02-24T09:23:46.189Z,5.30
2023-02-24T09:26:14.409Z,5.40
2023-02-24T09:28:54.885Z,5.50
2023-02-24T09:31:40.511Z,5.50
2023-02-24T09:34:10.423Z,5.60
2023-02-24T09:36:45.613Z,5.60
2023-02-24T09:39:14.800Z,5.50
2023-02-24T09:41:57.003Z,5.60
2023-02-24T09:44:45.637Z,5.60
2023-02-24T09:47:51.296Z,5.60
2023-02-24T09:50:59.090Z,5.60
2023-02-24T09:53:18.274Z,5.70
2023-02-24T09:56:05.809Z,5.70
2023-02-24T09:58:47.734Z,5.70
2023-02-24T10:01:33.940Z,5.80
2023-02-24T10:04:21.505Z,5.90
2023-02-24T10:07:03.226Z,5.90
2023-02-24T10:09:39.043Z,5.90
2023-02-24T10:12:19.810Z,5.90
2023-02-24T10:15:18.914Z,5.90
2023-02-24T10:18:00.243Z,5.90
2023-02-24T10:20:45.691Z,5.80
2023-02-24T10:23:32.848Z,5.90
2023-02-24T10:26:22.064Z,5.90
2023-02-24T10:29:22.601Z,5.90
2023-02-24T10:31:57.901Z,6.00
2023-02-24T10:34:32.031Z,6.10
2023-02-24T10:37:16.567Z,6.10
2023-02-24T10:40:09.873Z,6.10
2023-02-24T10:42:45.869Z,6.20
2023-02-24T10:45:34.682Z,6.20
2023-02-24T10:48:07.614Z,6.30
2023-02-24T10:50:55.188Z,6.30
2023-02-24T10:53:34.704Z,6.20
2023-02-24T10:56:41.746Z,6.20
2023-02-24T10:59:41.245Z,6.20
2023-02-24T11:02:32.941Z,6.20
2023-02-24T11:05:27.354Z,6.20
2023-02-24T11:08:15.905Z,6.20
2023-02-24T11:10:53.491Z,6.20
2023-02-24T11:13:39.608Z,6.20
2023-02-24T11:16:28.371Z,6.30
2023-02-24T11:18:57.129Z,6.30
2023-02-24T11:21:26.953Z,6.30
2023-02-24T11:23:59.564Z,6.30
2023-02-24T11:26:40.607Z,6.40
2023-02-24T11:29:26.306Z,6.40
2023-02-24T11:32:14.892Z,6.30
2023-02-24T11:34:53.193Z,6.30
2023-02-24T11:37:48.181Z,6.30
2023-02-24T11:40:23.854Z,6.40
2023-02-24T11:42:57.428Z,6.30
2023-02-24T11:45:36.373Z,6.30
2023-02-24T11:48:05.402Z,6.30
2023-02-24T11:50:50.550Z,6.20
2023-02-24T11:53:37.395Z,6.10
2023-02-24T11:56:12.184Z,6.10
2023-02-24T11:58:57.164Z,6.00
2023-02-24T12:01:35.522Z,6.00
2023-02-24T12:04:22.439Z,6.00
2023-02-24T12:07:01.992Z,6.10
2023-02-24T12:09:37.083Z,6.10
2023-02-24T12:12:18.766Z,6.00
2023-02-24T12:14:54.267Z,6.00
2023-02-24T12:17:38.463Z,6.00
2023-02-24T12:20:23.561Z,6.10
2023-02-24T12:22:57.423Z,6.10
2023-02-24T12:25:34.762Z,6.10
2023-02-24T12:28:18.406Z,6.10
2023-02-24T12:31:08.897Z,6.10
2023-02-24T12:33:35.927Z,6.10
2023-02-24T12:36:03.172Z,6.10
2023-02-24T12:38:53.630Z,6.10
2023-02-24T12:41:46.353Z,6.10
2023-02-24T12:44:22.297Z,6.10
2023-02-24T12:46:59.921Z,6.10
2023-02-24T12:49:36.338Z,6.10
2023-02-24T12:52:21.502Z,6.10
2023-02-24T12:55:06.485Z,6.10
2023-02-24T12:58:00.091Z,6.10
2023-02-24T13:00:56.773Z,6.10
2023-02-24T13:03:53.074Z,6.20
2023-02-24T13:06:58.301Z,6.20
2023-02-24T13:09:45.355Z,6.20
2023-02-24T13:12:27.450Z,6.40
2023-02-24T13:14:54.673Z,6.40
2023-02-24T13:17:25.293Z,6.40
2023-02-24T13:19:53.995Z,6.50
2023-02-24T13:22:27.596Z,6.50
2023-02-24T13:24:54.721Z,6.50
2023-02-24T13:27:27.800Z,6.60
2023-02-24T13:30:09.307Z,6.60
2023-02-24T13:32:39.414Z,6.60
2023-02-24T13:35:15.730Z,6.60
2023-02-24T13:37:45.098Z,6.60
2023-02-24T13:40:24.065Z,6.70
2023-02-24T13:42:57.453Z,6.70
2023-02-24T13:45:26.251Z,6.70
2023-02-24T13:48:08.333Z,6.80
2023-02-24T13:50:39.499Z,6.80
2023-02-24T13:53:28.962Z,6.80
2023-02-24T13:56:34.165Z,6.80
2023-02-24T13:59:38.675Z,6.80
2023-02-24T14:02:19.690Z,6.90
2023-02-24T14:04:53.103Z,6.90
2023-02-24T14:07:29.507Z,6.90
2023-02-24T14:10:14.073Z,6.90
2023-02-24T14:12:45.790Z,6.90
2023-02-24T14:15:18.526Z,7.00
2023-02-24T14:18:02.158Z,7.00
2023-02-24T14:20:35.095Z,7.20
2023-02-24T14:23:02.396Z,7.40
2023-02-24T14:25:35.463Z,7.50
2023-02-24T14:28:02.797Z,7.80
2023-02-24T14:30:41.047Z,7.90
2023-02-24T14:33:18.179Z,7.80
2023-02-24T14:35:48.490Z,7.70
2023-02-24T14:38:34.394Z,7.60
2023-02-24T14:41:10.473Z,7.60
2023-02-24T14:43:42.005Z,7.50
2023-02-24T14:46:09.296Z,7.50
2023-02-24T14:48:36.461Z,7.50
2023-02-24T14:51:23.029Z,7.50
2023-02-24T14:53:54.213Z,7.60
2023-02-24T14:56:28.147Z,7.80
2023-02-24T14:59:01.734Z,7.80
2023-02-24T15:01:38.384Z,7.70
2023-02-24T15:04:15.750Z,7.70
2023-02-24T15:06:44.570Z,7.70
2023-02-24T15:09:24.408Z,7.40
2023-02-24T15:11:56.293Z,7.20
2023-02-24T15:14:24.362Z,7.20
2023-02-24T15:16:55.005Z,7.10
2023-02-24T15:19:37.380Z,7.20
2023-02-24T15:22:18.423Z,7.30
2023-02-24T15:24:45.428Z,7.40
2023-02-24T15:27:15.139Z,7.30
2023-02-24T15:29:43.783Z,7.30
2023-02-24T15:32:19.379Z,7.20
2023-02-24T15:34:48.154Z,7.30
2023-02-24T15:37:27.732Z,7.30
2023-02-24T15:40:11.873Z,7.40
2023-02-24T15:42:38.824Z,7.40
2023-02-24T15:45:23.794Z,7.50
2023-02-24T15:47:56.859Z,7.50
2023-02-24T15:50:24.254Z,7.40
2023-02-24T15:52:51.277Z,7.30
2023-02-24T15:55:22.304Z,7.30
2023-02-24T15:57:59.097Z,7.10
2023-02-24T16:00:26.524Z,7.10
2023-02-24T16:02:53.652Z,6.90
2023-02-24T16:05:20.680Z,6.90
2023-02-24T16:07:48.799Z,6.90
2023-02-24T16:10:25.284Z,6.90
2023-02-24T16:13:00.766Z,6.80
2023-02-24T16:15:31.337Z,6.80
2023-02-24T16:17:59.170Z,6.80
2023-02-24T16:20:28.190Z,6.80
2023-02-24T16:22:59.966Z,6.70
2023-02-24T16:25:28.171Z,6.70
2023-02-24T16:27:57.706Z,6.70
2023-02-24T16:30:30.517Z,6.70
2023-02-24T16:32:59.427Z,6.70
2023-02-24T16:35:27.834Z,6.60
2023-02-24T16:37:55.277Z,6.60
2023-02-24T16:40:33.710Z,6.60
2023-02-24T16:43:00.651Z,6.60
2023-02-24T16:45:29.611Z,6.60
2023-02-24T16:48:01.281Z,6.60
2023-02-24T16:50:48.228Z,6.60
2023-02-24T16:53:18.923Z,6.60
2023-02-24T16:55:47.190Z,6.70
2023-02-24T16:58:15.054Z,6.60
2023-02-24T17:00:44.513Z,6.60
2023-02-24T17:03:21.795Z,6.60
2023-02-24T17:05:51.164Z,6.50
2023-02-24T17:08:19.305Z,6.50
2023-02-24T17:10:47.243Z,6.40
2023-02-24T17:13:16.439Z,6.40
2023-02-24T17:15:43.531Z,6.40
2023-02-24T17:18:11.208Z,6.30
2023-02-24T17:20:42.421Z,6.30
2023-02-24T17:23:11.299Z,6.20
2023-02-24T17:25:38.372Z,6.20
2023-02-24T17:28:06.464Z,6.20
2023-02-24T17:30:35.349Z,6.20
2023-02-24T17:33:02.975Z,6.20
2023-02-24T17:35:29.939Z,6.20
2023-02-24T17:37:57.043Z,6.20
2023-02-24T17:40:24.176Z,6.20
2023-02-24T17:42:51.511Z,6.20
2023-02-24T17:45:20.062Z,6.30
2023-02-24T17:47:47.195Z,6.30
2023-02-24T17:50:14.553Z,6.20
2023-02-24T17:52:49.151Z,6.20
2023-02-24T17:55:16.409Z,6.20
2023-02-24T17:57:43.591Z,6.10
2023-02-24T18:00:12.510Z,6.10
2023-02-24T18:02:39.969Z,6.00
2023-02-24T18:05:07.964Z,6.00
2023-02-24T18:07:35.515Z,6.00
2023-02-24T18:10:03.612Z,6.00
2023-02-24T18:12:30.627Z,5.90
2023-02-24T18:15:07.827Z,5.90
2023-02-24T18:17:36.301Z,5.90
2023-02-24T18:20:04.598Z,5.90
2023-02-24T18:22:32.708Z,6.00
2023-02-24T18:25:01.172Z,6.00
2023-02-24T18:27:28.656Z,6.00
2023-02-24T18:29:55.637Z,6.00
2023-02-24T18:32:22.984Z,6.00
2023-02-24T18:34:50.387Z,6.00
2023-02-24T18:37:17.424Z,5.90
2023-02-24T18:39:45.013Z,5.90
2023-02-24T18:42:12.420Z,5.80
2023-02-24T18:44:39.356Z,5.80
2023-02-24T18:47:10.012Z,5.80
2023-02-24T18:49:37.505Z,5.80
2023-02-24T18:52:05.661Z,5.80
2023-02-24T18:54:33.644Z,5.80
2023-02-24T18:57:01.024Z,5.90
2023-02-24T18:59:28.457Z,5.90
2023-02-24T19:01:56.891Z,5.90
2023-02-24T19:04:24.966Z,5.80
2023-02-24T19:06:54.495Z,5.80
2023-02-24T19:09:21.784Z,5.80
2023-02-24T19:11:49.795Z,5.80
2023-02-24T19:14:17.237Z,5.80
2023-02-24T19:16:45.678Z,5.80
2023-02-24T19:19:14.584Z,5.80
2023-02-24T19:21:41.700Z,5.80
2023-02-24T19:24:11.175Z,5.80
2023-02-24T19:26:38.792Z,5.80
2023-02-24T19:29:08.252Z,5.80
2023-02-24T19:31:36.039Z,5.70
2023-02-24T19:34:05.538Z,5.70
2023-02-24T19:36:34.097Z,5.80
2023-02-24T19:39:01.296Z,5.70
2023-02-24T19:41:29.118Z,5.70
2023-02-24T19:43:56.254Z,5.70
2023-02-24T19:46:25.955Z,5.70
2023-02-24T19:48:53.078Z,5.60
2023-02-24T19:51:23.559Z,5.60
2023-02-24T19:53:55.954Z,5.60
2023-02-24T19:56:28.166Z,5.60
2023-02-24T19:59:00.616Z,5.60
2023-02-24T20:01:28.899Z,5.50
2023-02-24T20:03:58.627Z,5.50
2023-02-24T20:06:25.800Z,5.50
2023-02-24T20:08:53.027Z,5.40
2023-02-24T20:11:20.921Z,5.40
2023-02-24T20:13:51.111Z,5.40
2023-02-24T20:16:19.838Z,5.40
2023-02-24T20:18:47.337Z,5.30
2023-02-24T20:21:15.462Z,5.30
2023-02-24T20:23:43.301Z,5.30
2023-02-24T20:26:14.032Z,5.30
2023-02-24T20:28:41.292Z,5.30
2023-02-24T20:31:15.273Z,5.30
2023-02-24T20:33:43.889Z,5.30
2023-02-24T20:36:15.291Z,5.20
2023-02-24T20:38:42.356Z,5.30
2023-02-24T20:41:09.794Z,5.20
2023-02-24T20:43:38.371Z,5.20
2023-02-24T20:46:28.362Z,5.20
2023-02-24T20:48:57.717Z,5.20
2023-02-24T20:51:26.172Z,5.20
2023-02-24T20:53:58.141Z,5.20
2023-02-24T20:56:27.749Z,5.20
2023-02-24T20:59:01.625Z,5.10
2023-02-24T21:01:30.876Z,5.10
2023-02-24T21:03:58.487Z,5.00
2023-02-24T21:06:28.502Z,5.00
2023-02-24T21:08:57.789Z,5.00
2023-02-24T21:11:25.530Z,5.00
2023-02-24T21:13:56.059Z,5.00
2023-02-24T21:16:25.475Z,5.00
2023-02-24T21:18:55.005Z,5.10
2023-02-24T21:21:22.706Z,5.10
2023-02-24T21:23:52.797Z,5.00
2023-02-24T21:26:22.086Z,5.00
2023-02-24T21:28:56.880Z,5.00
2023-02-24T21:31:27.242Z,4.90
2023-02-24T21:33:55.187Z,5.00
2023-02-24T21:36:25.796Z,4.90
2023-02-24T21:38:54.028Z,4.90
2023-02-24T21:41:22.411Z,4.90
2023-02-24T21:43:55.192Z,4.90
2023-02-24T21:46:24.705Z,4.90
2023-02-24T21:48:58.014Z,4.90
2023-02-24T21:51:28.700Z,4.90
2023-02-24T21:53:57.334Z,4.90
2023-02-24T21:56:27.438Z,4.90
2023-02-24T21:59:04.776Z,4.90
2023-02-24T22:01:34.712Z,4.90
2023-02-24T22:04:04.727Z,5.00
2023-02-24T22:06:34.102Z,4.90
2023-02-24T22:09:05.426Z,5.00
2023-02-24T22:11:35.561Z,5.00
2023-02-24T22:14:03.845Z,5.00
2023-02-24T22:16:34.125Z,5.00
2023-02-24T22:19:01.233Z,5.00
2023-02-24T22:21:30.798Z,5.00
2023-02-24T22:24:00.508Z,5.00
2023-02-24T22:26:29.369Z,4.90
2023-02-24T22:28:56.960Z,5.00
2023-02-24T22:31:29.876Z,5.00
2023-02-24T22:33:58.647Z,5.00
2023-02-24T22:36:29.207Z,5.00
2023-02-24T22:38:58.102Z,5.00
2023-02-24T22:41:27.783Z,5.00
2023-02-24T22:43:55.169Z,5.00
2023-02-24T22:46:31.191Z,5.00
2023-02-24T22:48:59.442Z,5.00
2023-02-24T22:51:27.142Z,5.00
2023-02-24T22:53:56.363Z,4.80
2023-02-24T22:56:26.351Z,4.70
2023-02-24T22:58:53.664Z,4.60
2023-02-24T23:01:27.363Z,4.50
2023-02-24T23:03:55.300Z,4.50
2023-02-24T23:06:26.302Z,4.40
2023-02-24T23:08:54.560Z,4.40
2023-02-24T23:11:28.484Z,4.40
2023-02-24T23:13:57.749Z,4.50
2023-02-24T23:16:28.243Z,4.40
2023-02-24T23:19:01.267Z,4.50
2023-02-24T23:21:40.486Z,4.40
2023-02-24T23:24:11.148Z,4.40
2023-02-24T23:27:01.950Z,4.40
2023-02-24T23:29:30.738Z,4.40
2023-02-24T23:31:58.158Z,4.40
2023-02-24T23:34:25.675Z,4.40
2023-02-24T23:36:52.925Z,4.40
2023-02-24T23:39:23.644Z,4.30
2023-02-24T23:41:57.000Z,4.40
2023-02-24T23:44:24.729Z,4.40
2023-02-24T23:46:51.714Z,4.40
2023-02-24T23:49:18.741Z,4.40
2023-02-24T23:51:48.884Z,4.40
2023-02-24T23:54:17.436Z,4.40
2023-02-24T23:56:44.555Z,4.50
2023-02-24T23:59:11.972Z,4.50
